UMMS/MSQ METAR and TAF weather

Enter ICAO airport designator
Station Type Date Time Source
UMMS METAR 2021/09/16 11:00 UTC NOAA

UMMS 161100Z 15004MPS 120V180 CAVOK 16/05 Q1019 R13L/CLRD// R13R/////// NOSIG


Station Type Date Time Source
UMMS Decoded METAR 2021/09/16 11:00 UTC NOAA

Minsk, Belarus (UMMS) 53-56N 027-38E 231M
Sep 16, 2021 - 07:00 AM EDT / 2021.09.16 1100 UTC
Wind: from the SSE (150 degrees) at 9 MPH (8 KT) (direction variable):0
Visibility: greater than 7 mile(s):0
Temperature: 60 F (16 C)
Dew Point: 41 F (5 C)
Relative Humidity: 47%
Pressure (altimeter): 30.09 in. Hg (1019 hPa)
ob: UMMS 161100Z 15004MPS 120V180 CAVOK 16/05 Q1019 R13L/CLRD// R13R/////// NOSIG
cycle: 11

Station Type Date Time Source
UMMS TAF 2021/09/16 06:21 UTC NOAA

TAF TAF UMMS 160501Z 1606/1706 07005G10MPS 9999 BKN020
TEMPO 1617/1706 09008G13MPS 1200 SHRA BKN005 SCT015CB

Example: see airport list